createdAt,value
2018-06-13T00:01:24.836Z,2.90
2018-06-13T00:04:36.116Z,2.43
2018-06-13T00:07:46.952Z,2.40
2018-06-13T00:10:57.824Z,2.70
2018-06-13T00:14:08.691Z,2.70
2018-06-13T00:17:20.324Z,3.03
2018-06-13T00:20:30.879Z,2.70
2018-06-13T00:23:41.353Z,2.70
2018-06-13T00:26:51.771Z,2.47
2018-06-13T00:30:02.694Z,3.20
2018-06-13T00:33:13.182Z,2.90
2018-06-13T00:36:23.908Z,3.00
2018-06-13T00:39:34.741Z,2.40
2018-06-13T00:42:46.464Z,3.00
2018-06-13T00:45:57.279Z,2.77
2018-06-13T00:49:07.716Z,3.03
2018-06-13T00:52:18.543Z,3.50
2018-06-13T00:55:29.556Z,3.27
2018-06-13T00:58:40.315Z,3.17
2018-06-13T01:01:51.288Z,3.07
2018-06-13T01:05:02.816Z,2.83
2018-06-13T01:08:13.549Z,3.20
2018-06-13T01:11:24.053Z,3.30
2018-06-13T01:14:34.811Z,3.83
2018-06-13T01:17:45.478Z,3.40
2018-06-13T01:20:55.822Z,3.80
2018-06-13T01:24:06.707Z,3.60
2018-06-13T01:27:17.517Z,3.43
2018-06-13T01:30:28.408Z,3.60
2018-06-13T01:33:39.208Z,3.23
2018-06-13T01:36:50.130Z,3.17
2018-06-13T01:40:01.154Z,2.97
2018-06-13T01:43:12.526Z,3.37
2018-06-13T01:46:24.382Z,3.03
2018-06-13T01:49:35.872Z,3.40
2018-06-13T01:52:46.592Z,4.30
2018-06-13T01:55:57.592Z,3.00
2018-06-13T01:59:07.958Z,3.40
2018-06-13T02:02:18.441Z,4.03
2018-06-13T02:05:29.108Z,3.10
2018-06-13T02:08:40.086Z,3.37
2018-06-13T02:11:50.399Z,3.57
2018-06-13T02:15:01.392Z,3.23
2018-06-13T02:18:12.281Z,4.07
2018-06-13T02:21:23.360Z,3.57
2018-06-13T02:24:34.115Z,3.80
2018-06-13T02:27:44.761Z,3.67
2018-06-13T02:30:55.724Z,3.67
2018-06-13T02:34:06.611Z,3.50
2018-06-13T02:37:18.216Z,3.93
2018-06-13T02:40:29.411Z,3.37
2018-06-13T02:43:40.160Z,2.80
2018-06-13T02:46:50.967Z,3.37
2018-06-13T02:50:01.435Z,4.03
2018-06-13T02:53:12.188Z,3.90
2018-06-13T02:56:23.149Z,3.90
2018-06-13T02:59:34.552Z,3.53
2018-06-13T03:02:45.345Z,4.00
2018-06-13T03:05:56.425Z,4.37
2018-06-13T03:09:10.385Z,4.30
2018-06-13T03:12:21.716Z,4.10
2018-06-13T03:15:34.203Z,3.63
2018-06-13T03:18:44.533Z,3.93
2018-06-13T03:21:56.004Z,3.83
2018-06-13T03:25:07.809Z,3.50
2018-06-13T03:28:20.169Z,3.97
2018-06-13T03:31:31.715Z,3.73
2018-06-13T03:34:42.844Z,3.60
2018-06-13T03:38:00.359Z,4.93
2018-06-13T03:41:12.698Z,4.77
2018-06-13T03:44:23.780Z,4.23
2018-06-13T03:47:35.264Z,4.63
2018-06-13T03:50:47.353Z,3.73
2018-06-13T03:53:59.813Z,4.37
2018-06-13T03:57:10.545Z,4.93
2018-06-13T04:00:21.958Z,4.80
2018-06-13T04:03:32.520Z,4.47
2018-06-13T04:06:43.190Z,3.70
2018-06-13T04:09:54.064Z,4.50
2018-06-13T04:13:04.671Z,3.97
2018-06-13T04:16:15.109Z,4.83
2018-06-13T04:19:26.815Z,4.57
2018-06-13T04:22:37.167Z,4.63
2018-06-13T04:25:47.988Z,4.53
2018-06-13T04:28:58.675Z,2.73
2018-06-13T04:32:09.572Z,2.53
2018-06-13T04:35:19.870Z,2.43
2018-06-13T04:38:32.028Z,2.23
2018-06-13T04:41:42.708Z,2.37
2018-06-13T04:44:53.189Z,3.47
2018-06-13T04:48:03.876Z,3.77
2018-06-13T04:51:14.616Z,4.27
2018-06-13T04:54:25.628Z,4.57
2018-06-13T04:57:36.336Z,4.30
2018-06-13T05:00:47.129Z,4.73
2018-06-13T05:03:57.994Z,5.00
2018-06-13T05:07:08.357Z,4.40
2018-06-13T05:10:19.360Z,5.07
2018-06-13T05:13:30.445Z,4.03
2018-06-13T05:16:41.048Z,3.40
2018-06-13T05:19:52.296Z,4.20
2018-06-13T05:23:02.721Z,3.80
2018-06-13T05:26:13.050Z,3.50
2018-06-13T05:29:23.989Z,3.30
2018-06-13T05:32:34.363Z,2.90
2018-06-13T05:35:47.880Z,3.10
2018-06-13T05:38:58.704Z,3.33
2018-06-13T05:42:08.953Z,3.20
2018-06-13T05:45:20.296Z,3.20
2018-06-13T05:48:30.915Z,2.87
2018-06-13T05:51:41.797Z,3.00
2018-06-13T05:54:52.480Z,2.73
2018-06-13T05:58:03.167Z,2.90
2018-06-13T06:01:18.364Z,3.60
2018-06-13T06:04:30.156Z,4.17
2018-06-13T06:07:40.772Z,4.40
2018-06-13T06:10:51.472Z,3.43
2018-06-13T06:14:02.037Z,3.90
2018-06-13T06:17:12.915Z,3.40
2018-06-13T06:20:23.662Z,4.00
2018-06-13T06:23:34.128Z,3.53
2018-06-13T06:26:44.447Z,3.43
2018-06-13T06:29:55.475Z,2.40
2018-06-13T06:33:06.340Z,2.97
2018-06-13T06:36:16.918Z,2.93
2018-06-13T06:39:27.812Z,2.30
2018-06-13T06:42:38.369Z,2.10
2018-06-13T06:45:49.371Z,2.30
2018-06-13T06:49:00.231Z,3.10
2018-06-13T06:52:10.987Z,2.20
2018-06-13T06:55:21.821Z,2.33
2018-06-13T06:58:32.558Z,2.60
2018-06-13T07:01:44.090Z,2.47
2018-06-13T07:04:55.347Z,2.20
2018-06-13T07:08:05.753Z,1.60
2018-06-13T07:11:16.562Z,2.17
2018-06-13T07:14:26.790Z,2.47
2018-06-13T07:17:37.175Z,2.20
2018-06-13T07:20:48.447Z,2.20
2018-06-13T07:23:59.128Z,2.30
2018-06-13T07:27:09.833Z,1.90
2018-06-13T07:30:21.255Z,2.03
2018-06-13T07:33:32.083Z,1.80
2018-06-13T07:36:42.940Z,1.87
2018-06-13T07:39:53.908Z,2.40
2018-06-13T07:43:04.644Z,1.60
2018-06-13T07:46:15.516Z,2.07
2018-06-13T07:49:26.324Z,2.60
2018-06-13T07:52:37.082Z,3.00
2018-06-13T07:55:47.427Z,1.90
2018-06-13T07:58:58.145Z,1.97
2018-06-13T08:02:08.708Z,1.53
2018-06-13T08:05:19.335Z,1.80
2018-06-13T08:08:30.223Z,1.37
2018-06-13T08:11:40.471Z,1.90
2018-06-13T08:14:51.140Z,1.53
2018-06-13T08:18:01.833Z,1.77
2018-06-13T08:21:12.684Z,1.63
2018-06-13T08:24:23.508Z,2.00
2018-06-13T08:27:34.066Z,1.83
2018-06-13T08:30:44.924Z,1.73
2018-06-13T08:33:55.351Z,1.87
2018-06-13T08:37:05.962Z,1.40
2018-06-13T08:40:16.730Z,1.70
2018-06-13T08:43:27.480Z,1.93
2018-06-13T08:46:38.521Z,1.50
2018-06-13T08:49:49.216Z,1.77
2018-06-13T08:52:59.805Z,1.63
2018-06-13T08:56:10.147Z,1.47
2018-06-13T08:59:20.968Z,1.80
2018-06-13T09:02:31.896Z,1.70
2018-06-13T09:05:42.379Z,1.37
2018-06-13T09:08:52.878Z,1.30
2018-06-13T09:12:04.332Z,1.63
2018-06-13T09:15:14.777Z,1.07
2018-06-13T09:18:25.540Z,1.30
2018-06-13T09:21:35.818Z,1.47
2018-06-13T09:24:46.464Z,1.33
2018-06-13T09:27:57.084Z,0.70
2018-06-13T09:31:07.553Z,1.00
2018-06-13T09:34:18.349Z,0.80
2018-06-13T09:37:29.104Z,0.83
2018-06-13T09:40:39.771Z,0.60
2018-06-13T09:43:50.895Z,1.07
2018-06-13T09:47:06.903Z,0.73
2018-06-13T09:50:13.204Z,1.10
2018-06-13T09:53:23.792Z,1.10
2018-06-13T09:56:34.514Z,0.93
2018-06-13T09:59:50.375Z,1.13
2018-06-13T10:03:01.157Z,1.10
2018-06-13T10:06:11.862Z,0.90
2018-06-13T10:09:22.464Z,1.20
2018-06-13T10:12:33.132Z,1.10
2018-06-13T10:15:47.906Z,1.10
2018-06-13T10:18:58.836Z,1.10
2018-06-13T10:22:09.763Z,1.17
2018-06-13T10:25:21.019Z,1.20
2018-06-13T10:28:31.919Z,1.20
2018-06-13T10:31:45.733Z,1.20
2018-06-13T10:34:56.304Z,1.00
2018-06-13T10:38:07.684Z,1.20
2018-06-13T10:41:18.456Z,0.97
2018-06-13T10:44:29.666Z,1.30
2018-06-13T10:47:40.125Z,1.37
2018-06-13T10:50:50.453Z,1.17
2018-06-13T10:54:01.412Z,1.10
2018-06-13T10:57:12.229Z,1.20
2018-06-13T11:00:22.868Z,1.20
2018-06-13T11:03:33.744Z,1.73
2018-06-13T11:06:45.077Z,1.23
2018-06-13T11:09:55.424Z,1.77
2018-06-13T11:13:06.156Z,1.30
2018-06-13T11:16:16.971Z,1.30
2018-06-13T11:19:27.698Z,1.27
2018-06-13T11:22:38.415Z,1.50
2018-06-13T11:25:48.716Z,1.20
2018-06-13T11:29:00.110Z,1.23
2018-06-13T11:32:11.448Z,1.60
2018-06-13T11:35:21.720Z,1.63
2018-06-13T11:38:32.119Z,1.70
2018-06-13T11:41:42.857Z,1.57
2018-06-13T11:44:54.654Z,2.20
2018-06-13T11:48:05.460Z,1.73
2018-06-13T11:51:16.938Z,1.43
2018-06-13T11:54:27.800Z,1.77
2018-06-13T11:57:38.722Z,2.20
2018-06-13T12:00:49.476Z,1.97
2018-06-13T12:04:00.067Z,2.40
2018-06-13T12:07:10.834Z,1.97
2018-06-13T12:10:22.261Z,1.87
2018-06-13T12:13:32.785Z,1.87
2018-06-13T12:16:43.556Z,1.47
2018-06-13T12:19:54.121Z,1.30
2018-06-13T12:23:06.253Z,1.50
2018-06-13T12:26:17.657Z,1.30
2018-06-13T12:29:29.121Z,1.30
2018-06-13T12:32:48.453Z,1.43
2018-06-13T12:35:58.891Z,1.70
2018-06-13T12:39:11.352Z,1.70
2018-06-13T12:42:22.072Z,1.50
2018-06-13T12:45:32.874Z,1.60
2018-06-13T12:48:43.433Z,1.40
2018-06-13T12:51:54.139Z,1.87
2018-06-13T12:55:05.189Z,1.60
2018-06-13T12:58:15.940Z,1.20
2018-06-13T13:01:26.956Z,1.60
2018-06-13T13:04:38.542Z,1.47
2018-06-13T13:07:49.090Z,1.60
2018-06-13T13:10:59.451Z,1.40
2018-06-13T13:14:10.065Z,1.30
2018-06-13T13:17:20.913Z,1.60
2018-06-13T13:20:31.516Z,1.33
2018-06-13T13:23:42.261Z,1.10
2018-06-13T13:26:53.372Z,1.10
2018-06-13T13:30:04.342Z,1.50
2018-06-13T13:33:15.184Z,1.57
2018-06-13T13:36:25.887Z,1.50
2018-06-13T13:39:36.671Z,1.63
2018-06-13T13:42:48.847Z,1.20
2018-06-13T13:45:59.878Z,1.27
2018-06-13T13:49:10.159Z,1.30
2018-06-13T13:52:20.750Z,1.30
2018-06-13T13:55:31.176Z,1.47
2018-06-13T13:58:41.614Z,1.37
2018-06-13T14:01:52.367Z,1.57
2018-06-13T14:05:02.995Z,1.40
2018-06-13T14:08:13.632Z,1.53
2018-06-13T14:11:24.445Z,1.60
2018-06-13T14:14:35.261Z,1.32
2018-06-13T14:17:46.283Z,1.20
2018-06-13T14:20:57.556Z,1.10
2018-06-13T14:24:12.464Z,1.13
2018-06-13T14:27:22.793Z,1.30
2018-06-13T14:30:33.942Z,1.40
2018-06-13T14:33:45.600Z,1.00
2018-06-13T14:36:56.419Z,1.20
2018-06-13T14:40:07.029Z,1.13
2018-06-13T14:43:17.686Z,0.80
2018-06-13T14:46:29.532Z,1.20
2018-06-13T14:49:40.540Z,1.50
2018-06-13T14:52:51.248Z,1.40
2018-06-13T14:56:07.147Z,1.40
2018-06-13T14:59:17.686Z,1.53
2018-06-13T15:02:28.657Z,1.50
2018-06-13T15:05:39.752Z,1.33
2018-06-13T15:08:50.741Z,1.20
2018-06-13T15:12:01.492Z,1.40
2018-06-13T15:15:12.704Z,1.40
2018-06-13T15:18:24.205Z,1.20
2018-06-13T15:21:34.875Z,1.60
2018-06-13T15:24:45.708Z,0.97
2018-06-13T15:27:56.557Z,1.80
2018-06-13T15:31:07.416Z,1.63
2018-06-13T15:34:18.067Z,1.40
2018-06-13T15:37:28.625Z,1.20
2018-06-13T15:40:40.397Z,1.33
2018-06-13T15:43:51.260Z,1.17
2018-06-13T15:47:02.535Z,1.20
2018-06-13T15:50:14.065Z,1.30
2018-06-13T15:53:24.973Z,1.60
2018-06-13T15:56:35.587Z,1.60
2018-06-13T15:59:48.240Z,2.03
2018-06-13T16:03:03.686Z,1.80
2018-06-13T16:06:15.747Z,1.33
2018-06-13T16:09:29.429Z,1.30
2018-06-13T16:12:40.416Z,1.80
2018-06-13T16:15:51.839Z,1.30
2018-06-13T16:19:05.512Z,3.93
2018-06-13T16:22:18.948Z,2.30
2018-06-13T16:25:29.636Z,1.40
2018-06-13T16:28:41.143Z,1.40
2018-06-13T16:31:52.007Z,1.30
2018-06-13T16:35:04.547Z,1.17
2018-06-13T16:38:20.343Z,1.00
2018-06-13T16:41:31.258Z,1.40
2018-06-13T16:44:42.428Z,1.20
2018-06-13T16:47:55.191Z,1.17
2018-06-13T16:51:17.262Z,1.12
2018-06-13T16:54:45.017Z,0.90
2018-06-13T16:57:58.679Z,1.52
2018-06-13T17:01:10.551Z,1.80
2018-06-13T17:04:22.968Z,1.20
2018-06-13T17:07:34.261Z,0.93
2018-06-13T17:10:45.369Z,1.50
2018-06-13T17:13:57.131Z,2.27
2018-06-13T17:17:07.569Z,1.30
2018-06-13T17:20:20.555Z,1.33
2018-06-13T17:23:31.009Z,1.30
2018-06-13T17:26:42.793Z,1.20
2018-06-13T17:29:55.084Z,1.73
2018-06-13T17:33:09.009Z,1.27
2018-06-13T17:36:22.488Z,1.03
2018-06-13T17:39:32.982Z,1.30
2018-06-13T17:42:44.321Z,1.47
2018-06-13T17:45:56.288Z,1.50
2018-06-13T17:49:09.423Z,1.50
2018-06-13T17:52:20.974Z,1.50
2018-06-13T17:55:32.144Z,1.80
2018-06-13T17:58:43.272Z,1.30
2018-06-13T18:01:55.148Z,1.70
2018-06-13T18:05:08.112Z,0.90
2018-06-13T18:08:19.314Z,1.10
2018-06-13T18:11:30.118Z,1.40
2018-06-13T18:14:42.804Z,13.87
2018-06-13T18:17:54.478Z,1.53
2018-06-13T18:21:10.958Z,1.57
2018-06-13T18:24:24.262Z,1.62
2018-06-13T18:27:35.428Z,1.60
2018-06-13T18:30:46.336Z,1.17
2018-06-13T18:33:57.925Z,1.33
2018-06-13T18:37:10.714Z,1.20
2018-06-13T18:40:22.046Z,1.57
2018-06-13T18:43:33.008Z,1.50
2018-06-13T18:46:44.046Z,1.52
2018-06-13T18:49:55.186Z,18.50
2018-06-13T18:53:07.869Z,2.03
2018-06-13T18:56:18.468Z,1.63
2018-06-13T18:59:29.092Z,1.70
2018-06-13T19:02:42.575Z,1.80
2018-06-13T19:05:53.143Z,1.60
2018-06-13T19:09:04.759Z,2.20
2018-06-13T19:12:15.517Z,2.00
2018-06-13T19:15:26.235Z,2.20
2018-06-13T19:18:37.047Z,2.10
2018-06-13T19:21:48.967Z,2.17
2018-06-13T19:25:00.313Z,2.10
2018-06-13T19:28:11.881Z,2.47
2018-06-13T19:31:22.815Z,2.30
2018-06-13T19:34:33.991Z,2.60
2018-06-13T19:37:44.789Z,2.30
2018-06-13T19:40:58.028Z,2.40
2018-06-13T19:44:08.958Z,2.40
2018-06-13T19:47:24.507Z,2.27
2018-06-13T19:50:35.124Z,2.70
2018-06-13T19:53:50.777Z,2.40
2018-06-13T19:57:02.137Z,4.67
2018-06-13T20:00:13.489Z,5.63
2018-06-13T20:03:29.190Z,3.43
2018-06-13T20:06:40.908Z,3.10
2018-06-13T20:09:51.609Z,3.47
2018-06-13T20:13:08.014Z,3.40
2018-06-13T20:16:40.884Z,3.53
2018-06-13T20:19:53.126Z,3.80
2018-06-13T20:23:04.042Z,4.20
2018-06-13T20:26:19.934Z,3.60
2018-06-13T20:29:35.877Z,4.50
2018-06-13T20:32:46.836Z,3.70
2018-06-13T20:35:57.781Z,3.53
2018-06-13T20:39:11.066Z,4.00
2018-06-13T20:42:23.064Z,3.87
2018-06-13T20:45:33.928Z,3.90
2018-06-13T20:48:44.272Z,3.40
2018-06-13T20:51:55.109Z,3.70
2018-06-13T20:55:05.866Z,3.37
2018-06-13T20:58:16.534Z,3.90
2018-06-13T21:01:27.732Z,4.77
2018-06-13T21:04:38.540Z,4.10
2018-06-13T21:07:49.297Z,4.10
2018-06-13T21:11:00.399Z,4.57
2018-06-13T21:14:10.900Z,4.43
2018-06-13T21:17:21.869Z,4.17
2018-06-13T21:20:32.901Z,4.10
2018-06-13T21:23:44.506Z,4.23
2018-06-13T21:26:55.947Z,4.43
2018-06-13T21:30:07.209Z,4.00
2018-06-13T21:33:19.263Z,4.40
2018-06-13T21:36:30.702Z,4.30
2018-06-13T21:39:41.890Z,4.90
2018-06-13T21:42:53.480Z,4.73
2018-06-13T21:46:04.454Z,5.10
2018-06-13T21:49:15.482Z,4.70
2018-06-13T21:52:28.059Z,5.03
2018-06-13T21:55:38.866Z,5.40
2018-06-13T21:58:49.172Z,5.23
2018-06-13T22:02:00.329Z,5.53
2018-06-13T22:05:10.659Z,5.40
2018-06-13T22:08:21.222Z,5.60
2018-06-13T22:11:36.003Z,6.30
2018-06-13T22:14:46.390Z,5.90
2018-06-13T22:17:58.413Z,6.57
2018-06-13T22:21:11.056Z,6.40
2018-06-13T22:24:21.427Z,6.53
2018-06-13T22:27:32.097Z,6.83
2018-06-13T22:30:42.781Z,7.13
2018-06-13T22:33:53.700Z,6.17
2018-06-13T22:37:08.648Z,5.57
2018-06-13T22:40:20.702Z,7.90
2018-06-13T22:43:31.665Z,7.53
2018-06-13T22:46:42.575Z,6.67
2018-06-13T22:49:53.035Z,7.33
2018-06-13T22:53:04.187Z,7.47
2018-06-13T22:56:14.971Z,7.63
2018-06-13T22:59:25.211Z,7.60
2018-06-13T23:02:35.995Z,9.47
2018-06-13T23:05:46.557Z,8.17
2018-06-13T23:08:57.459Z,8.83
2018-06-13T23:12:08.617Z,7.13
2018-06-13T23:15:19.486Z,7.73
2018-06-13T23:18:31.062Z,7.87
2018-06-13T23:21:41.601Z,8.43
2018-06-13T23:24:52.340Z,8.53
2018-06-13T23:28:02.827Z,8.63
2018-06-13T23:31:13.252Z,8.87
2018-06-13T23:34:23.849Z,7.20
2018-06-13T23:37:35.119Z,6.60
2018-06-13T23:40:46.108Z,8.37
2018-06-13T23:43:56.863Z,8.57
2018-06-13T23:47:07.962Z,9.20
2018-06-13T23:50:19.041Z,10.93
2018-06-13T23:53:29.396Z,11.40
2018-06-13T23:56:41.070Z,12.63
2018-06-13T23:59:51.986Z,9.43
